Terminal Aerodrome Forecast
Issued by NWS

Home | Current Version | Previous Version | Graphics & Text | Print | Product List | Glossary On
Versions: 1 2 3 4 5 6 7 8 9 10 11 12 13 14 15 16 17
000
FTUS43 KMPX 261125
TAFRNH
TAF
KRNH 261125Z 2612/2712 21006KT P6SM VCSH BKN025 OVC040
     FM261600 25009KT P6SM VCSH BKN025 OVC040
     FM261900 28012G18KT P6SM SCT025 BKN045
     FM262300 29007KT P6SM SCT050 SCT250
     FM270400 VRB02KT P6SM BKN150=

USA.gov is the U.S. government's official web portal to all federal, state and local government web resources and services.